Time;durP1;ratioP1;P1;durP2;ratioP2;P2;SDS_P1;SDS_P2;PMS_P1;PMS_P2;Temp;Humidity;BMP_temperature;BMP_pressure;BME280_temperature;BME280_humidity;BME280_pressure;Samples;Min_cycle;Max_cycle;Signal;HPM_P1;HPM_P2
2022/07/21 00:01:52;;;;;;;6.43;2.60;;;;;;;;;;4890047;29;20048;-67
2022/07/21 00:04:18;;;;;;;3.92;2.10;;;;;;;;;;4893947;29;20045;-68
2022/07/21 00:06:45;;;;;;;4.15;2.40;;;;;;;;;;4892466;29;20053;-67
2022/07/21 00:09:12;;;;;;;3.08;2.58;;;;;;;;;;4892453;29;20061;-65
2022/07/21 00:11:39;;;;;;;7.53;2.70;;;;;;;;;;4892803;29;20045;-65
2022/07/21 00:14:07;;;;;;;3.95;2.88;;;;;;;;;;4883993;29;20057;-67
2022/07/21 00:16:34;;;;;;;4.50;2.50;;;;;;;;;;4892036;29;20162;-69
2022/07/21 00:19:00;;;;;;;5.50;3.00;;;;;;;;;;4894324;29;20061;-68
2022/07/21 00:21:27;;;;;;;3.67;2.30;;;;;;;;;;4891289;29;20147;-68
2022/07/21 00:23:53;;;;;;;4.20;2.55;;;;;;;;;;4894749;29;20067;-70
2022/07/21 00:26:19;;;;;;;5.15;2.80;;;;;;;;;;4892637;29;20278;-69
2022/07/21 00:28:45;;;;;;;5.40;3.17;;;;;;;;;;4889718;29;20068;-70
2022/07/21 00:31:11;;;;;;;6.70;2.85;;;;;;;;;;4888387;29;20421;-69
2022/07/21 00:33:36;;;;;;;5.90;3.35;;;;;;;;;;4886331;29;20041;-67
2022/07/21 00:36:03;;;;;;;7.18;3.30;;;;;;;;;;4888591;29;20056;-67
2022/07/21 00:38:29;;;;;;;5.35;3.40;;;;;;;;;;4872992;29;20048;-67
2022/07/21 00:40:55;;;;;;;6.20;3.63;;;;;;;;;;4895134;29;20057;-68
2022/07/21 00:43:21;;;;;;;4.72;2.72;;;;;;;;;;4894174;29;20144;-70
2022/07/21 00:45:47;;;;;;;5.03;3.20;;;;;;;;;;4895466;29;20411;-67
2022/07/21 00:48:13;;;;;;;3.58;2.90;;;;;;;;;;4889566;29;20045;-66
2022/07/21 00:50:39;;;;;;;4.70;2.75;;;;;;;;;;4895211;29;20045;-68
2022/07/21 00:53:05;;;;;;;6.90;2.55;;;;;;;;;;4894665;29;20041;-68
2022/07/21 00:55:31;;;;;;;4.18;2.70;;;;;;;;;;4898555;29;20051;-70
2022/07/21 00:57:57;;;;;;;5.70;2.47;;;;;;;;;;4899084;29;20096;-68
2022/07/21 01:00:26;;;;;;;4.43;2.40;;;;;;;;;;4880125;29;20040;-68
2022/07/21 01:02:53;;;;;;;7.60;2.85;;;;;;;;;;4886728;29;20063;-67
2022/07/21 01:05:19;;;;;;;4.93;2.35;;;;;;;;;;4887829;29;20041;-68
2022/07/21 01:07:47;;;;;;;6.32;2.40;;;;;;;;;;4892305;29;20041;-66
2022/07/21 01:10:14;;;;;;;4.95;2.22;;;;;;;;;;4889824;29;20044;-68
2022/07/21 01:12:41;;;;;;;4.95;2.20;;;;;;;;;;4894751;29;20518;-66
2022/07/21 01:15:09;;;;;;;4.38;2.20;;;;;;;;;;4894124;29;20052;-70
2022/07/21 01:17:35;;;;;;;4.15;2.17;;;;;;;;;;4896979;29;20052;-70
2022/07/21 01:20:07;;;;;;;3.17;2.20;;;;;;;;;;4893407;29;20063;-67
2022/07/21 01:22:34;;;;;;;6.13;2.00;;;;;;;;;;4895936;29;20120;-66
2022/07/21 01:25:01;;;;;;;2.55;2.22;;;;;;;;;;4901722;29;20421;-64
2022/07/21 01:27:27;;;;;;;5.63;2.20;;;;;;;;;;4897362;29;20045;-67
2022/07/21 01:29:54;;;;;;;4.88;2.40;;;;;;;;;;4873713;29;20053;-71
2022/07/21 01:32:19;;;;;;;5.07;2.10;;;;;;;;;;4899975;29;20077;-67
2022/07/21 01:34:45;;;;;;;5.45;2.40;;;;;;;;;;4898566;29;20479;-67
2022/07/21 01:37:12;;;;;;;3.75;2.20;;;;;;;;;;4896890;29;20466;-69
2022/07/21 01:42:23;;;;;;;4.80;2.08;;;;;;;;;;4890656;29;20104;-67
2022/07/21 01:44:49;;;;;;;2.75;2.10;;;;;;;;;;4896199;29;20049;-67
2022/07/21 01:47:17;;;;;;;2.92;2.60;;;;;;;;;;4895973;29;20051;-67
2022/07/21 01:49:44;;;;;;;4.05;2.67;;;;;;;;;;4898043;29;20373;-65
2022/07/21 01:52:10;;;;;;;5.40;2.55;;;;;;;;;;4896159;29;20452;-71
2022/07/21 01:54:36;;;;;;;5.00;2.40;;;;;;;;;;4896072;29;20083;-66
2022/07/21 01:57:02;;;;;;;3.47;2.50;;;;;;;;;;4892782;29;20554;-67
2022/07/21 01:59:28;;;;;;;4.20;2.50;;;;;;;;;;4892834;29;20044;-66
2022/07/21 02:01:54;;;;;;;3.95;2.55;;;;;;;;;;4893811;29;20144;-67
2022/07/21 02:04:20;;;;;;;8.40;2.90;;;;;;;;;;4895355;29;20056;-66
2022/07/21 02:06:45;;;;;;;4.25;2.80;;;;;;;;;;4895582;29;20064;-65
2022/07/21 02:09:11;;;;;;;5.03;2.92;;;;;;;;;;4891918;29;20048;-67
2022/07/21 02:11:38;;;;;;;5.18;2.90;;;;;;;;;;4891901;29;20100;-67
2022/07/21 02:14:04;;;;;;;4.32;2.80;;;;;;;;;;4892681;29;20060;-67
2022/07/21 02:16:30;;;;;;;6.65;3.20;;;;;;;;;;4887736;29;20056;-67
2022/07/21 02:18:56;;;;;;;5.50;3.17;;;;;;;;;;4894738;29;20143;-65
2022/07/21 02:21:22;;;;;;;4.85;3.13;;;;;;;;;;4892813;29;20056;-65
2022/07/21 02:23:48;;;;;;;4.68;3.10;;;;;;;;;;4893820;29;20048;-65
2022/07/21 02:26:14;;;;;;;4.75;3.03;;;;;;;;;;4891799;29;20513;-67
2022/07/21 02:28:40;;;;;;;7.07;2.95;;;;;;;;;;4893414;29;20108;-65
2022/07/21 02:31:06;;;;;;;11.02;3.30;;;;;;;;;;4895774;29;20053;-66
2022/07/21 02:33:32;;;;;;;8.65;3.55;;;;;;;;;;4889004;29;20068;-67
2022/07/21 02:35:59;;;;;;;8.00;3.50;;;;;;;;;;4890620;29;20052;-66
2022/07/21 02:38:24;;;;;;;6.10;3.00;;;;;;;;;;4890943;29;20061;-66
2022/07/21 02:40:50;;;;;;;4.30;2.80;;;;;;;;;;4890742;29;20049;-65
2022/07/21 02:43:16;;;;;;;6.28;3.05;;;;;;;;;;4892470;29;20044;-67
2022/07/21 02:45:43;;;;;;;6.97;2.83;;;;;;;;;;4888150;29;20055;-67
2022/07/21 02:48:13;;;;;;;6.03;3.13;;;;;;;;;;4891000;29;20064;-65
2022/07/21 02:50:42;;;;;;;5.95;3.08;;;;;;;;;;4890992;29;20469;-66
2022/07/21 02:53:13;;;;;;;5.72;3.20;;;;;;;;;;4893406;29;20076;-65
2022/07/21 02:55:40;;;;;;;7.47;3.30;;;;;;;;;;4889458;29;20175;-68
2022/07/21 02:58:16;;;;;;;3.88;2.90;;;;;;;;;;4892028;29;20510;-68
2022/07/21 03:00:45;;;;;;;5.22;3.47;;;;;;;;;;4891865;29;20048;-66
2022/07/21 03:03:11;;;;;;;6.25;3.38;;;;;;;;;;4893662;29;20092;-66
2022/07/21 03:05:38;;;;;;;6.53;3.17;;;;;;;;;;4894880;29;20045;-65
2022/07/21 03:08:05;;;;;;;5.30;2.72;;;;;;;;;;4888900;29;20203;-66
2022/07/21 03:10:31;;;;;;;5.93;3.20;;;;;;;;;;4892653;29;20090;-67
2022/07/21 03:12:57;;;;;;;5.95;3.10;;;;;;;;;;4886593;29;20052;-64
2022/07/21 03:15:23;;;;;;;5.72;3.13;;;;;;;;;;4894758;29;20055;-68
2022/07/21 03:17:48;;;;;;;5.30;3.10;;;;;;;;;;4894377;29;20372;-66
2022/07/21 03:20:15;;;;;;;4.82;3.10;;;;;;;;;;4888148;29;20068;-66
2022/07/21 03:22:41;;;;;;;9.13;2.88;;;;;;;;;;4893080;29;20045;-71
2022/07/21 03:25:07;;;;;;;3.92;3.10;;;;;;;;;;4887021;29;20354;-67
2022/07/21 03:27:36;;;;;;;7.20;2.85;;;;;;;;;;4892930;29;20049;-66
2022/07/21 03:30:08;;;;;;;7.18;3.17;;;;;;;;;;4892036;29;20053;-68
2022/07/21 03:32:35;;;;;;;4.63;2.92;;;;;;;;;;4891680;29;20499;-66
2022/07/21 03:35:02;;;;;;;5.93;2.90;;;;;;;;;;4876579;29;20396;-66
2022/07/21 03:37:28;;;;;;;5.22;2.88;;;;;;;;;;4887308;29;20529;-66
2022/07/21 03:39:54;;;;;;;7.57;3.03;;;;;;;;;;4866272;29;20108;-68
2022/07/21 03:42:20;;;;;;;3.65;2.80;;;;;;;;;;4883689;29;20446;-66
2022/07/21 03:44:46;;;;;;;8.30;2.80;;;;;;;;;;4872262;29;20128;-67
2022/07/21 03:47:12;;;;;;;4.72;2.65;;;;;;;;;;4891076;29;20052;-68
2022/07/21 03:49:37;;;;;;;4.65;3.05;;;;;;;;;;4893391;29;20068;-68
2022/07/21 03:52:04;;;;;;;8.65;3.15;;;;;;;;;;4879153;29;20049;-66
2022/07/21 03:54:29;;;;;;;6.15;3.10;;;;;;;;;;4880796;29;20057;-66
2022/07/21 03:56:55;;;;;;;3.88;3.05;;;;;;;;;;4890197;29;20416;-65
2022/07/21 03:59:21;;;;;;;6.32;3.03;;;;;;;;;;4893578;29;20053;-68
2022/07/21 04:01:47;;;;;;;5.18;3.08;;;;;;;;;;4888171;29;20105;-68
2022/07/21 04:04:13;;;;;;;7.70;3.28;;;;;;;;;;4890079;29;20075;-71
2022/07/21 04:06:39;;;;;;;10.00;4.10;;;;;;;;;;4891958;29;20067;-70
2022/07/21 04:09:04;;;;;;;7.18;4.68;;;;;;;;;;4896017;29;20453;-71
2022/07/21 04:11:31;;;;;;;10.45;4.53;;;;;;;;;;4895624;29;20045;-70
2022/07/21 04:13:57;;;;;;;8.95;4.63;;;;;;;;;;4876862;29;20044;-73
2022/07/21 04:16:23;;;;;;;9.57;5.03;;;;;;;;;;4888424;29;20052;-72
2022/07/21 04:18:49;;;;;;;8.25;4.40;;;;;;;;;;4892369;29;20052;-71
2022/07/21 04:21:16;;;;;;;7.60;4.20;;;;;;;;;;4887835;29;20148;-74
2022/07/21 04:35:25;;;;;;;8.38;4.03;;;;;;;;;;5069840;27;20429;-77
2022/07/21 04:37:51;;;;;;;11.00;4.57;;;;;;;;;;5069091;28;20059;-79
2022/07/21 04:40:17;;;;;;;6.88;4.45;;;;;;;;;;5067685;28;20048;-72
2022/07/21 04:42:43;;;;;;;8.98;5.18;;;;;;;;;;5067296;28;20052;-78
2022/07/21 04:45:11;;;;;;;6.55;4.50;;;;;;;;;;5072839;28;20122;-77
2022/07/21 04:47:48;;;;;;;13.45;5.50;;;;;;;;;;5072622;28;20068;-75
2022/07/21 04:50:15;;;;;;;9.55;5.45;;;;;;;;;;5069513;28;20045;-76
2022/07/21 04:52:41;;;;;;;11.45;5.43;;;;;;;;;;5070990;28;20052;-77
2022/07/21 04:55:08;;;;;;;10.57;5.30;;;;;;;;;;5068555;28;20140;-76
2022/07/21 04:57:53;;;;;;;7.93;5.10;;;;;;;;;;5075436;28;20052;-76
2022/07/21 05:00:24;;;;;;;8.68;5.22;;;;;;;;;;5070299;28;20358;-75
2022/07/21 05:02:51;;;;;;;8.10;5.22;;;;;;;;;;5069507;28;20139;-76
2022/07/21 05:05:17;;;;;;;9.82;4.78;;;;;;;;;;5072289;28;20090;-76
2022/07/21 05:07:43;;;;;;;8.02;5.00;;;;;;;;;;5063706;28;20053;-74
2022/07/21 05:10:15;;;;;;;9.82;4.90;;;;;;;;;;5069678;28;20044;-73
2022/07/21 05:12:41;;;;;;;11.93;4.82;;;;;;;;;;5070120;28;20506;-76
2022/07/21 05:15:12;;;;;;;7.50;4.70;;;;;;;;;;5071921;28;20053;-75
2022/07/21 05:17:39;;;;;;;10.27;4.95;;;;;;;;;;5063933;28;20140;-76
2022/07/21 05:20:06;;;;;;;8.63;3.85;;;;;;;;;;5069202;28;20169;-80
2022/07/21 05:22:31;;;;;;;9.25;4.00;;;;;;;;;;5067112;28;20041;-78
2022/07/21 05:24:57;;;;;;;9.70;4.25;;;;;;;;;;5070635;28;20063;-78
2022/07/21 05:27:23;;;;;;;10.57;3.88;;;;;;;;;;5068791;28;20048;-79
2022/07/21 05:29:49;;;;;;;11.20;3.97;;;;;;;;;;5068994;28;20049;-79
2022/07/21 05:32:15;;;;;;;15.65;4.13;;;;;;;;;;5069953;28;20056;-77
2022/07/21 05:34:40;;;;;;;6.45;3.80;;;;;;;;;;5064029;28;20056;-77
2022/07/21 05:50:23;;;;;;;7.50;4.30;;;;;;;;;;5114799;27;20211;-62
2022/07/21 05:52:50;;;;;;;8.75;3.90;;;;;;;;;;5091723;28;20148;-70
2022/07/21 05:55:15;;;;;;;10.75;4.35;;;;;;;;;;5086842;28;20458;-64
2022/07/21 05:57:41;;;;;;;9.43;3.83;;;;;;;;;;5091394;28;20571;-65
2022/07/21 06:00:08;;;;;;;10.13;3.80;;;;;;;;;;5098358;28;20494;-63
2022/07/21 06:02:34;;;;;;;8.50;3.70;;;;;;;;;;5095347;28;20051;-66
2022/07/21 06:05:00;;;;;;;5.95;3.80;;;;;;;;;;5078027;28;20049;-69
2022/07/21 06:07:26;;;;;;;8.00;3.78;;;;;;;;;;5088412;28;20119;-67
2022/07/21 06:09:52;;;;;;;10.35;3.90;;;;;;;;;;5100329;28;20061;-65
2022/07/21 06:12:18;;;;;;;12.45;3.92;;;;;;;;;;5093702;28;20403;-64
2022/07/21 06:14:44;;;;;;;9.43;3.78;;;;;;;;;;5097813;28;20039;-68
2022/07/21 06:17:10;;;;;;;8.02;3.60;;;;;;;;;;5087226;28;20058;-65
2022/07/21 06:19:36;;;;;;;13.23;4.03;;;;;;;;;;5090481;28;20134;-64
2022/07/21 06:22:02;;;;;;;15.63;4.50;;;;;;;;;;5096862;28;20067;-66
2022/07/21 06:24:29;;;;;;;9.02;4.13;;;;;;;;;;5094612;28;20043;-64
2022/07/21 06:26:55;;;;;;;13.25;4.50;;;;;;;;;;5092099;28;20454;-65
2022/07/21 06:29:22;;;;;;;7.47;3.50;;;;;;;;;;5089277;28;20371;-68
2022/07/21 06:31:48;;;;;;;9.35;4.13;;;;;;;;;;5082751;28;20490;-67
2022/07/21 06:34:14;;;;;;;11.00;3.60;;;;;;;;;;5073216;28;20225;-65
2022/07/21 06:36:40;;;;;;;8.38;3.88;;;;;;;;;;5101355;28;20516;-65
2022/07/21 06:39:05;;;;;;;12.73;3.70;;;;;;;;;;5096013;28;20131;-65
2022/07/21 06:41:31;;;;;;;16.60;4.13;;;;;;;;;;5083531;28;20043;-65
2022/07/21 06:43:58;;;;;;;6.45;3.80;;;;;;;;;;5096458;28;20075;-71
2022/07/21 06:46:24;;;;;;;11.23;4.05;;;;;;;;;;5097955;28;20094;-63
2022/07/21 06:48:51;;;;;;;10.43;4.07;;;;;;;;;;5089919;28;20059;-64
2022/07/21 06:51:17;;;;;;;11.68;3.67;;;;;;;;;;5086899;28;20046;-67
2022/07/21 06:53:42;;;;;;;10.48;4.32;;;;;;;;;;5084178;28;20122;-65
2022/07/21 06:56:09;;;;;;;16.77;4.22;;;;;;;;;;5070972;28;20480;-66
2022/07/21 06:58:35;;;;;;;8.25;3.80;;;;;;;;;;5082906;28;20067;-65
2022/07/21 07:01:01;;;;;;;8.27;4.43;;;;;;;;;;5079713;28;20063;-66
2022/07/21 07:03:26;;;;;;;12.32;3.85;;;;;;;;;;5077885;28;20044;-65
2022/07/21 07:05:52;;;;;;;7.68;3.60;;;;;;;;;;5078950;28;20049;-66
2022/07/21 07:08:18;;;;;;;12.10;3.70;;;;;;;;;;5070122;28;20040;-64
2022/07/21 07:10:46;;;;;;;16.40;4.07;;;;;;;;;;5077533;28;20036;-68
2022/07/21 07:13:13;;;;;;;13.85;4.20;;;;;;;;;;5083219;28;20209;-67
2022/07/21 07:15:39;;;;;;;8.88;3.97;;;;;;;;;;5086019;28;20105;-69
2022/07/21 07:18:05;;;;;;;15.82;4.10;;;;;;;;;;5074300;28;20060;-65
2022/07/21 07:20:32;;;;;;;14.55;4.32;;;;;;;;;;5077611;28;20040;-66
2022/07/21 07:22:57;;;;;;;15.80;4.38;;;;;;;;;;5075416;28;20046;-65
2022/07/21 07:25:24;;;;;;;15.80;4.85;;;;;;;;;;5069736;28;20118;-66
2022/07/21 07:27:51;;;;;;;10.18;3.90;;;;;;;;;;5082882;28;20044;-65
2022/07/21 07:30:18;;;;;;;12.73;4.10;;;;;;;;;;5070829;28;20060;-66
2022/07/21 07:32:47;;;;;;;10.50;3.90;;;;;;;;;;5085031;28;20425;-65
2022/07/21 07:35:13;;;;;;;15.27;4.20;;;;;;;;;;5077097;28;20048;-65
2022/07/21 07:37:41;;;;;;;6.60;3.60;;;;;;;;;;5077560;28;20040;-64
2022/07/21 07:40:10;;;;;;;6.22;3.38;;;;;;;;;;5076109;28;20067;-63
2022/07/21 07:42:38;;;;;;;8.85;4.30;;;;;;;;;;5067492;28;20248;-64
2022/07/21 07:45:05;;;;;;;9.32;3.75;;;;;;;;;;5069419;28;20559;-65
2022/07/21 07:47:31;;;;;;;8.13;3.58;;;;;;;;;;5078512;28;20461;-68
2022/07/21 07:49:58;;;;;;;10.23;3.55;;;;;;;;;;5088032;28;20083;-67
2022/07/21 07:52:24;;;;;;;6.00;3.60;;;;;;;;;;5081478;28;20121;-64
2022/07/21 07:54:50;;;;;;;10.73;3.70;;;;;;;;;;5077265;28;20078;-67
2022/07/21 07:57:16;;;;;;;13.95;3.78;;;;;;;;;;5077028;28;20119;-64
2022/07/21 07:59:42;;;;;;;10.15;3.60;;;;;;;;;;5079502;28;20049;-67
2022/07/21 08:02:08;;;;;;;8.48;3.40;;;;;;;;;;5069425;28;20127;-68
2022/07/21 08:04:35;;;;;;;9.13;3.88;;;;;;;;;;5068244;28;20446;-67
2022/07/21 08:07:02;;;;;;;12.68;3.83;;;;;;;;;;5068324;28;20146;-68
2022/07/21 08:09:28;;;;;;;8.73;3.40;;;;;;;;;;5068356;28;20071;-64
2022/07/21 08:11:54;;;;;;;7.35;3.72;;;;;;;;;;5067170;28;20063;-63
2022/07/21 08:14:20;;;;;;;12.10;3.63;;;;;;;;;;5068474;28;20114;-63
2022/07/21 08:16:45;;;;;;;8.23;3.80;;;;;;;;;;5065378;28;20105;-69
2022/07/21 08:19:12;;;;;;;12.65;3.65;;;;;;;;;;5075326;28;20056;-65
2022/07/21 08:21:37;;;;;;;6.78;3.67;;;;;;;;;;5073131;28;20097;-70
2022/07/21 08:24:04;;;;;;;7.38;4.00;;;;;;;;;;5067537;28;20526;-64
2022/07/21 08:26:29;;;;;;;6.55;4.05;;;;;;;;;;5067279;28;20372;-63
2022/07/21 08:28:57;;;;;;;6.10;3.97;;;;;;;;;;5078443;28;20044;-68
2022/07/21 08:31:24;;;;;;;11.10;4.28;;;;;;;;;;5083866;28;20055;-64
2022/07/21 08:33:51;;;;;;;10.25;4.43;;;;;;;;;;5070356;28;20124;-67
2022/07/21 08:36:17;;;;;;;9.18;4.13;;;;;;;;;;5067788;28;20140;-65
2022/07/21 08:38:43;;;;;;;7.53;3.80;;;;;;;;;;5072227;28;20047;-69
2022/07/21 08:41:10;;;;;;;10.30;4.30;;;;;;;;;;5067112;28;20039;-64
2022/07/21 08:43:36;;;;;;;10.60;4.07;;;;;;;;;;5067593;28;20064;-71
2022/07/21 08:46:03;;;;;;;10.25;4.78;;;;;;;;;;5074030;28;20070;-64
2022/07/21 08:48:30;;;;;;;7.55;4.20;;;;;;;;;;5086396;28;20778;-65
2022/07/21 08:50:57;;;;;;;6.72;3.75;;;;;;;;;;5077996;28;20055;-65
2022/07/21 08:53:24;;;;;;;7.10;3.50;;;;;;;;;;5071363;28;20044;-66
2022/07/21 08:55:50;;;;;;;5.20;3.10;;;;;;;;;;5080577;28;20055;-64
2022/07/21 08:58:16;;;;;;;5.07;3.17;;;;;;;;;;5067201;28;20482;-65
2022/07/21 09:00:44;;;;;;;6.43;3.22;;;;;;;;;;5072765;28;20134;-67
2022/07/21 09:03:26;;;;;;;6.97;3.50;;;;;;;;;;5078708;28;20111;-64
2022/07/21 09:06:12;;;;;;;4.22;3.00;;;;;;;;;;5074140;28;20110;-67
2022/07/21 09:08:42;;;;;;;8.90;3.30;;;;;;;;;;5067480;28;20044;-64
2022/07/21 09:11:20;;;;;;;7.38;3.00;;;;;;;;;;5083231;28;20448;-63
2022/07/21 09:13:51;;;;;;;7.57;3.20;;;;;;;;;;5066685;28;20483;-66
2022/07/21 09:16:34;;;;;;;7.40;3.22;;;;;;;;;;5067418;28;20048;-66
2022/07/21 09:19:01;;;;;;;11.07;3.15;;;;;;;;;;5076834;28;20559;-68
2022/07/21 09:21:28;;;;;;;5.35;3.35;;;;;;;;;;5078065;28;20072;-65
2022/07/21 09:24:16;;;;;;;5.53;3.03;;;;;;;;;;5074335;28;20044;-66
2022/07/21 09:27:00;;;;;;;6.70;3.00;;;;;;;;;;5070142;28;20498;-65
2022/07/21 09:29:40;;;;;;;5.55;2.88;;;;;;;;;;5071527;28;20048;-68
2022/07/21 09:32:12;;;;;;;12.00;3.10;;;;;;;;;;5068404;28;20056;-67
2022/07/21 09:34:38;;;;;;;6.07;2.60;;;;;;;;;;5068757;28;20071;-65
2022/07/21 09:37:06;;;;;;;6.20;3.30;;;;;;;;;;5067717;28;20037;-70
2022/07/21 09:39:47;;;;;;;5.45;3.30;;;;;;;;;;5071076;28;20097;-67
2022/07/21 09:42:15;;;;;;;5.25;2.97;;;;;;;;;;5077096;28;20060;-67
2022/07/21 09:44:46;;;;;;;7.55;3.08;;;;;;;;;;5075686;28;20044;-67
2022/07/21 09:47:13;;;;;;;5.95;3.00;;;;;;;;;;5073703;28;20085;-69
2022/07/21 09:49:41;;;;;;;11.32;3.15;;;;;;;;;;5067072;28;20507;-69
2022/07/21 09:52:42;;;;;;;6.55;3.08;;;;;;;;;;5066750;28;20490;-69
2022/07/21 09:55:13;;;;;;;6.28;2.90;;;;;;;;;;5074241;28;20044;-67
2022/07/21 09:57:40;;;;;;;6.30;2.92;;;;;;;;;;5047203;28;20051;-68
2022/07/21 10:00:09;;;;;;;5.47;2.55;;;;;;;;;;5070893;28;20124;-68
2022/07/21 10:02:35;;;;;;;6.68;2.97;;;;;;;;;;5066317;28;20122;-64
2022/07/21 10:05:04;;;;;;;5.30;2.80;;;;;;;;;;5057297;28;20052;-67
2022/07/21 10:07:31;;;;;;;7.63;2.92;;;;;;;;;;5070081;28;20049;-65
2022/07/21 10:09:58;;;;;;;7.13;3.00;;;;;;;;;;5078981;28;20067;-66
2022/07/21 10:12:26;;;;;;;5.53;3.10;;;;;;;;;;5079382;28;20037;-67
2022/07/21 10:14:52;;;;;;;5.32;2.20;;;;;;;;;;5066838;28;20076;-67
2022/07/21 10:17:20;;;;;;;5.65;2.63;;;;;;;;;;5057931;28;20105;-67
2022/07/21 10:20:12;;;;;;;7.82;2.67;;;;;;;;;;5069108;28;20041;-67
2022/07/21 10:22:41;;;;;;;4.60;2.67;;;;;;;;;;5065507;28;20052;-68
2022/07/21 10:25:07;;;;;;;8.65;2.90;;;;;;;;;;5069697;28;20548;-66
2022/07/21 10:27:33;;;;;;;4.18;2.53;;;;;;;;;;5078936;28;20123;-69
2022/07/21 10:30:00;;;;;;;6.40;2.55;;;;;;;;;;5075087;28;20113;-69
2022/07/21 10:32:29;;;;;;;5.78;2.55;;;;;;;;;;5073566;28;20418;-67
2022/07/21 10:34:57;;;;;;;5.30;2.58;;;;;;;;;;5070075;28;20495;-64
2022/07/21 10:37:38;;;;;;;4.03;2.55;;;;;;;;;;5060421;28;20046;-65
2022/07/21 10:40:26;;;;;;;5.72;3.10;;;;;;;;;;5068319;28;20475;-72
2022/07/21 10:43:01;;;;;;;6.55;3.00;;;;;;;;;;5057937;28;20482;-67
2022/07/21 10:45:34;;;;;;;6.38;3.05;;;;;;;;;;5080850;28;20491;-66
2022/07/21 10:48:04;;;;;;;5.50;3.07;;;;;;;;;;5066641;28;20055;-69
2022/07/21 10:50:36;;;;;;;4.72;2.80;;;;;;;;;;5070346;28;20044;-64
2022/07/21 10:53:05;;;;;;;5.10;2.70;;;;;;;;;;5069930;28;20495;-66
2022/07/21 10:55:35;;;;;;;3.38;2.50;;;;;;;;;;5082836;28;20047;-65
2022/07/21 10:58:15;;;;;;;4.97;2.65;;;;;;;;;;5069223;28;20036;-64
2022/07/21 11:00:45;;;;;;;7.32;2.72;;;;;;;;;;5069670;28;20041;-65
2022/07/21 11:03:21;;;;;;;8.07;2.72;;;;;;;;;;5071365;28;20487;-67
2022/07/21 11:06:05;;;;;;;10.15;3.20;;;;;;;;;;5069602;28;20102;-66
2022/07/21 11:08:32;;;;;;;4.95;2.85;;;;;;;;;;5080987;28;20135;-66
2022/07/21 11:11:14;;;;;;;8.60;2.90;;;;;;;;;;5072950;28;20049;-64
2022/07/21 11:14:18;;;;;;;4.55;2.55;;;;;;;;;;5073455;28;20345;-70
2022/07/21 11:16:46;;;;;;;8.73;2.88;;;;;;;;;;5074293;28;20053;-64
2022/07/21 11:19:40;;;;;;;7.53;2.95;;;;;;;;;;5074271;28;20063;-68
2022/07/21 11:22:10;;;;;;;8.88;3.55;;;;;;;;;;5069364;28;20875;-64
2022/07/21 11:24:36;;;;;;;5.00;2.90;;;;;;;;;;5068764;28;20055;-65
2022/07/21 11:27:10;;;;;;;7.18;2.97;;;;;;;;;;5073211;28;20177;-65
2022/07/21 11:29:39;;;;;;;4.10;2.90;;;;;;;;;;5073740;28;20040;-65
2022/07/21 11:32:05;;;;;;;5.03;2.92;;;;;;;;;;5071668;28;20533;-63
2022/07/21 11:34:44;;;;;;;7.50;2.80;;;;;;;;;;5069031;28;20040;-65
2022/07/21 11:37:13;;;;;;;5.90;2.92;;;;;;;;;;5069104;28;20416;-70
2022/07/21 11:39:39;;;;;;;7.57;2.85;;;;;;;;;;5068959;28;20136;-65
2022/07/21 11:42:07;;;;;;;5.93;2.75;;;;;;;;;;5075740;28;20048;-62
2022/07/21 11:44:34;;;;;;;8.95;3.20;;;;;;;;;;5072996;28;20051;-62
2022/07/21 11:47:02;;;;;;;5.35;3.05;;;;;;;;;;5073736;28;20086;-65
2022/07/21 11:49:28;;;;;;;7.53;2.85;;;;;;;;;;5068720;28;20064;-68
2022/07/21 11:51:58;;;;;;;6.25;2.90;;;;;;;;;;5072442;28;20229;-64
2022/07/21 11:54:31;;;;;;;4.38;2.70;;;;;;;;;;5078527;28;20036;-69
2022/07/21 11:56:59;;;;;;;5.80;2.90;;;;;;;;;;5073600;28;20048;-68
2022/07/21 11:59:26;;;;;;;9.50;4.63;;;;;;;;;;5082536;28;20048;-63
2022/07/21 12:02:01;;;;;;;10.75;3.33;;;;;;;;;;5075911;28;20052;-69
2022/07/21 12:04:30;;;;;;;5.97;3.08;;;;;;;;;;5075193;28;20052;-68
2022/07/21 12:06:57;;;;;;;6.22;2.50;;;;;;;;;;5068205;28;20048;-64
2022/07/21 12:09:23;;;;;;;8.00;2.55;;;;;;;;;;5070758;28;20044;-67
2022/07/21 12:11:50;;;;;;;4.05;2.65;;;;;;;;;;5085817;28;20073;-70
2022/07/21 12:14:16;;;;;;;4.93;2.35;;;;;;;;;;5072666;28;20132;-63
2022/07/21 12:16:53;;;;;;;4.70;2.90;;;;;;;;;;5075569;28;20508;-63
2022/07/21 12:19:20;;;;;;;5.05;2.97;;;;;;;;;;5073091;28;20044;-64
2022/07/21 12:21:53;;;;;;;3.92;2.40;;;;;;;;;;5077995;28;20438;-69
2022/07/21 12:24:21;;;;;;;6.05;2.60;;;;;;;;;;5074498;28;20444;-66
2022/07/21 12:26:47;;;;;;;4.10;2.40;;;;;;;;;;5080713;28;20044;-68
2022/07/21 12:29:35;;;;;;;10.00;2.72;;;;;;;;;;5067908;28;20118;-63
2022/07/21 12:32:01;;;;;;;4.25;2.40;;;;;;;;;;5078255;28;20068;-63
2022/07/21 12:34:26;;;;;;;4.78;2.60;;;;;;;;;;5068021;28;20075;-65
2022/07/21 12:36:52;;;;;;;4.18;2.78;;;;;;;;;;5085410;28;20509;-63
2022/07/21 12:42:26;;;;;;;4.90;2.60;;;;;;;;;;5078938;28;20090;-68
2022/07/21 12:44:52;;;;;;;9.00;2.70;;;;;;;;;;5051810;28;20053;-64
2022/07/21 12:47:20;;;;;;;4.93;2.60;;;;;;;;;;5081952;28;20051;-69
2022/07/21 12:49:58;;;;;;;4.18;2.70;;;;;;;;;;5068542;28;20088;-66
2022/07/21 12:52:25;;;;;;;5.50;2.53;;;;;;;;;;5067774;28;20491;-66
2022/07/21 12:54:51;;;;;;;5.22;2.53;;;;;;;;;;5077670;28;20476;-64
2022/07/21 12:57:17;;;;;;;7.15;2.60;;;;;;;;;;5084151;28;20078;-66
2022/07/21 12:59:43;;;;;;;4.95;2.28;;;;;;;;;;5067268;28;20056;-66
2022/07/21 13:02:09;;;;;;;8.25;2.60;;;;;;;;;;5079434;28;20117;-69
2022/07/21 13:04:35;;;;;;;7.57;2.60;;;;;;;;;;5067619;28;20040;-67
2022/07/21 13:07:01;;;;;;;6.30;2.60;;;;;;;;;;5077580;28;20055;-69
2022/07/21 13:09:27;;;;;;;5.15;2.50;;;;;;;;;;5073672;28;20040;-68
2022/07/21 13:11:53;;;;;;;5.93;2.50;;;;;;;;;;5077549;28;20131;-63
2022/07/21 13:14:19;;;;;;;7.18;2.78;;;;;;;;;;5071617;28;20056;-66
2022/07/21 13:16:45;;;;;;;5.10;2.50;;;;;;;;;;5054963;28;20045;-64
2022/07/21 13:19:10;;;;;;;5.65;2.70;;;;;;;;;;5068022;28;20052;-66
2022/07/21 13:21:36;;;;;;;8.00;2.90;;;;;;;;;;5067745;28;20109;-66
2022/07/21 13:24:02;;;;;;;7.97;2.72;;;;;;;;;;5073925;28;20036;-64
2022/07/21 13:26:28;;;;;;;4.60;2.85;;;;;;;;;;5071666;28;20044;-69
2022/07/21 13:28:54;;;;;;;5.55;2.70;;;;;;;;;;5066695;28;20484;-62
2022/07/21 13:31:21;;;;;;;5.38;2.60;;;;;;;;;;5074168;28;20040;-64
2022/07/21 13:33:47;;;;;;;6.97;2.47;;;;;;;;;;5067337;28;20049;-63
2022/07/21 13:36:13;;;;;;;8.05;2.78;;;;;;;;;;5064881;28;20493;-67
2022/07/21 13:38:39;;;;;;;5.50;2.60;;;;;;;;;;5066467;28;20430;-62
2022/07/21 13:41:05;;;;;;;6.53;2.80;;;;;;;;;;5070745;28;20120;-69
2022/07/21 13:43:32;;;;;;;8.85;3.10;;;;;;;;;;5065859;28;20049;-63
2022/07/21 13:45:58;;;;;;;9.20;3.67;;;;;;;;;;5070130;28;20048;-65
2022/07/21 13:48:23;;;;;;;8.15;2.85;;;;;;;;;;5076522;28;20048;-64
2022/07/21 13:50:49;;;;;;;6.47;3.63;;;;;;;;;;5082307;28;20040;-64
2022/07/21 13:53:15;;;;;;;6.60;2.85;;;;;;;;;;5068068;28;20049;-67
2022/07/21 13:55:41;;;;;;;7.05;3.00;;;;;;;;;;5073898;28;20119;-67
2022/07/21 13:58:08;;;;;;;7.72;2.80;;;;;;;;;;5072251;28;20466;-65
2022/07/21 14:00:34;;;;;;;6.43;3.13;;;;;;;;;;5068778;28;20127;-64
2022/07/21 14:03:00;;;;;;;9.57;3.28;;;;;;;;;;5075647;28;20048;-67
2022/07/21 14:05:26;;;;;;;6.35;3.25;;;;;;;;;;5076110;28;20539;-71
2022/07/21 14:07:52;;;;;;;8.27;3.45;;;;;;;;;;5071121;28;20051;-66
2022/07/21 14:10:18;;;;;;;7.20;3.08;;;;;;;;;;5070285;28;20044;-67
2022/07/21 14:12:44;;;;;;;7.10;3.95;;;;;;;;;;5083565;28;20054;-68
2022/07/21 14:15:10;;;;;;;9.55;4.20;;;;;;;;;;5087143;28;20043;-66
2022/07/21 14:17:36;;;;;;;4.97;2.97;;;;;;;;;;5072703;28;20090;-67
2022/07/21 14:20:04;;;;;;;10.57;2.92;;;;;;;;;;5085595;28;20065;-63
2022/07/21 14:22:30;;;;;;;11.65;2.92;;;;;;;;;;5076703;28;20152;-64
2022/07/21 14:27:40;;;;;;;8.73;2.90;;;;;;;;;;5069702;28;20040;-62
2022/07/21 14:30:06;;;;;;;5.47;3.60;;;;;;;;;;5067938;28;20059;-68
2022/07/21 14:32:32;;;;;;;7.78;2.80;;;;;;;;;;5069289;28;20081;-64
2022/07/21 14:34:58;;;;;;;6.43;3.08;;;;;;;;;;5069865;28;20052;-68
2022/07/21 14:37:24;;;;;;;6.45;3.10;;;;;;;;;;5088702;28;20136;-66
2022/07/21 14:39:50;;;;;;;6.90;2.35;;;;;;;;;;5078168;28;20136;-64
2022/07/21 14:42:17;;;;;;;3.63;2.25;;;;;;;;;;5077209;28;20044;-64
2022/07/21 14:44:45;;;;;;;6.55;2.45;;;;;;;;;;5079453;28;20041;-63
2022/07/21 14:47:12;;;;;;;9.40;3.22;;;;;;;;;;5076831;28;20055;-65
2022/07/21 14:49:38;;;;;;;7.30;2.83;;;;;;;;;;5069940;28;20435;-64
2022/07/21 14:52:05;;;;;;;5.65;2.30;;;;;;;;;;5077913;28;20040;-64
2022/07/21 14:54:31;;;;;;;6.45;2.60;;;;;;;;;;5073050;28;20403;-65
2022/07/21 14:56:57;;;;;;;8.30;2.45;;;;;;;;;;5076536;28;20414;-64
2022/07/21 14:59:23;;;;;;;7.13;2.85;;;;;;;;;;5072918;28;20119;-65
2022/07/21 15:01:49;;;;;;;6.07;2.38;;;;;;;;;;5077861;28;20052;-72
2022/07/21 15:04:15;;;;;;;3.97;2.20;;;;;;;;;;5084390;28;20048;-64
2022/07/21 15:06:43;;;;;;;6.45;3.10;;;;;;;;;;5069816;28;20043;-65
2022/07/21 15:09:09;;;;;;;5.40;2.33;;;;;;;;;;5074284;28;20036;-66
2022/07/21 15:11:34;;;;;;;7.78;2.40;;;;;;;;;;5068260;28;20443;-69
2022/07/21 15:14:00;;;;;;;2.85;1.95;;;;;;;;;;5069770;28;20087;-64
2022/07/21 15:16:26;;;;;;;6.00;2.38;;;;;;;;;;5078648;28;20172;-64
2022/07/21 15:18:52;;;;;;;5.25;2.10;;;;;;;;;;5069376;28;20060;-64